Estación de Galvarino

Ultimos registro cada 15 minutos 57
Estación Fecha / Hora Temperatura Humedad Lluvia Velocidad Dirección Radiación Presion
57 Galvarino 05-05-2026 14:00 13,8 90,9 1 1,5 136 31,9 985,4
56 Galvarino 05-05-2026 13:45 15,6 80,5 0 2,5 86 14,4 985,9
55 Galvarino 05-05-2026 13:30 16,4 75,6 0 2 177 115,6 984,1
54 Galvarino 05-05-2026 13:15 16,4 77 0 2 177 159,4 984
53 Galvarino 05-05-2026 13:00 16,3 77,7 0 2 175 105,6 984,2
52 Galvarino 05-05-2026 12:45 16,8 76,7 0 1 174 221,9 984,4
51 Galvarino 05-05-2026 12:30 16,2 78,6 0 1,5 177 246,9 984,5
50 Galvarino 05-05-2026 12:15 16,3 78,4 0 1,5 175 316,9 984,3
49 Galvarino 05-05-2026 12:00 15,6 80,2 0 1,5 173 479,4 984,3
48 Galvarino 05-05-2026 11:45 15 81,9 0 1,5 168 170,6 984,4
47 Galvarino 05-05-2026 11:30 15 85,2 0 0,5 167 169,4 984,9
46 Galvarino 05-05-2026 11:15 14,3 86,8 0 0,5 166 211,9 985,1
45 Galvarino 05-05-2026 11:00 14 87,2 0 1,5 170 124,4 985,3
44 Galvarino 05-05-2026 10:45 13,9 87,2 0 2,5 173 90,6 985,3
43 Galvarino 05-05-2026 10:30 13,8 87,2 0 2 181 89,4 985,3
42 Galvarino 05-05-2026 10:15 13,5 88,9 0 2 181 73,1 985,1
41 Galvarino 05-05-2026 10:00 13,4 89 0 1 184 90,6 985,5
40 Galvarino 05-05-2026 09:45 13,2 89,5 0 1,5 187 83,1 985,4
39 Galvarino 05-05-2026 09:30 13 90,5 0 2 183 33,1 988,5
38 Galvarino 05-05-2026 09:15 13,1 89,9 0 2 178 19,4 989,1
37 Galvarino 05-05-2026 09:00 13,1 89,2 0 2 168 21,9 989,7
36 Galvarino 05-05-2026 08:45 13 90,4 0 1,5 168 25,6 989,6
35 Galvarino 05-05-2026 08:30 13 89,9 0 1,5 178 14,4 989,9
34 Galvarino 05-05-2026 08:15 12,9 90,3 0 2 180 14,4 989,8
33 Galvarino 05-05-2026 08:00 12,9 90,7 0 2 173 6,9 990,2
32 Galvarino 05-05-2026 07:45 12,8 91,3 0 2 178 1,9 990,1
31 Galvarino 05-05-2026 07:30 12,7 91,6 0 2 171 0,6 989,9
30 Galvarino 05-05-2026 07:15 12,7 91,3 0 2,5 168 0,6 990,4
29 Galvarino 05-05-2026 07:00 12,5 92,3 0 1,5 171 0,6 989,8
28 Galvarino 05-05-2026 06:45 12,3 93,8 0 0,5 160 0,6 988,9
27 Galvarino 05-05-2026 06:30 12,2 94,2 0 1,5 167 0,6 989
26 Galvarino 05-05-2026 06:15 12,2 94,8 0 1,5 184 0,6 989,1
25 Galvarino 05-05-2026 06:00 12,1 95,8 0,2 1 181 0,6 988,9
24 Galvarino 05-05-2026 05:45 12,2 95,5 0 1,5 178 0,6 989,5
23 Galvarino 05-05-2026 05:30 12,2 95,5 0,2 2 173 0,6 990
22 Galvarino 05-05-2026 05:15 12,2 95,4 0 2 175 0,6 989,9
21 Galvarino 05-05-2026 05:00 12,2 95,1 0 1 178 0,6 990,3
20 Galvarino 05-05-2026 04:45 12,1 95,7 0 0,5 181 0,6 990,4
19 Galvarino 05-05-2026 04:30 12 96,4 0 1 177 0,6 990,4
18 Galvarino 05-05-2026 04:15 11,9 96,6 0 0,5 174 0,6 990,2
17 Galvarino 05-05-2026 04:00 11,9 96,7 0 0,5 170 0,6 990,3
16 Galvarino 05-05-2026 03:45 12 96,2 0 1 173 0,6 990,5
15 Galvarino 05-05-2026 03:30 11,7 97,1 0 0 198 0,6 988,9
14 Galvarino 05-05-2026 03:15 11,7 96,9 0 0 160 0,6 989,3
13 Galvarino 05-05-2026 03:00 11,6 96,7 0 0 157 0,6 989
12 Galvarino 05-05-2026 02:45 11,7 96,6 0 0 161 0,6 989,4
11 Galvarino 05-05-2026 02:30 11,5 97,3 0 0 181 0,6 988,8
10 Galvarino 05-05-2026 02:15 11,6 97 0 0 177 0,6 989
9 Galvarino 05-05-2026 02:00 11,6 96,9 0 0 177 0,6 989,2
8 Galvarino 05-05-2026 01:45 11,7 96,5 0 0 171 0,6 989,7
7 Galvarino 05-05-2026 01:30 11,5 97,9 0 0,5 171 0,6 989,2
6 Galvarino 05-05-2026 01:15 11,4 98,1 0 0 164 0,6 988,8
5 Galvarino 05-05-2026 01:00 11,4 98 0 0 171 0,6 988,8
4 Galvarino 05-05-2026 00:45 11,4 98,3 0 0 187 0,6 988,6
3 Galvarino 05-05-2026 00:30 11,5 98,1 0,2 0 173 0,6 989,3
2 Galvarino 05-05-2026 00:15 11,5 98,6 0 0 173 0,6 989,5
1 Galvarino 05-05-2026 00:00 11,5 98,8 0,2 0 174 0,6 989,7